Time;durP1;ratioP1;P1;durP2;ratioP2;P2;SDS_P1;SDS_P2;PMS_P1;PMS_P2;Temp;Humidity;BMP_temperature;BMP_pressure;BME280_temperature;BME280_humidity;BME280_pressure;Samples;Min_cycle;Max_cycle;Signal;HPM_P1;HPM_P2
2022/04/19 00:00:37;;;;;;;8.50;8.20;;;23.90;40.80;;;;;;5072792;28;20564;-45
2022/04/19 00:03:05;;;;;;;8.13;7.93;;;23.90;40.90;;;;;;5072830;28;20458;-47
2022/04/19 00:05:33;;;;;;;8.27;8.07;;;23.90;40.90;;;;;;5073109;28;20479;-46
2022/04/19 00:08:00;;;;;;;8.43;8.23;;;23.80;40.90;;;;;;5072764;28;20448;-45
2022/04/19 00:10:28;;;;;;;9.70;9.30;;;23.80;40.90;;;;;;5072867;28;20462;-45
2022/04/19 00:12:56;;;;;;;9.53;9.23;;;23.80;41.00;;;;;;5072938;28;20483;-45
2022/04/19 00:15:25;;;;;;;9.27;8.97;;;23.80;41.10;;;;;;5072007;28;20478;-45
2022/04/19 00:17:52;;;;;;;8.73;8.47;;;23.70;41.00;;;;;;5072533;28;20505;-49
2022/04/19 00:20:19;;;;;;;8.63;8.43;;;23.70;41.10;;;;;;5072516;28;20479;-51
2022/04/19 00:22:46;;;;;;;8.03;7.83;;;23.70;41.20;;;;;;5072227;28;20822;-48
2022/04/19 00:25:13;;;;;;;8.80;8.57;;;23.70;41.20;;;;;;5072412;28;20475;-47
2022/04/19 00:27:40;;;;;;;10.20;9.90;;;23.60;41.20;;;;;;5072249;28;20439;-46
2022/04/19 00:30:08;;;;;;;10.00;9.70;;;23.60;41.30;;;;;;5071971;28;20935;-47
2022/04/19 00:32:37;;;;;;;9.47;9.17;;;23.60;41.40;;;;;;5072271;28;20447;-46
2022/04/19 00:35:04;;;;;;;9.73;9.43;;;23.60;41.40;;;;;;5072134;28;20464;-46
2022/04/19 00:37:30;;;;;;;8.97;8.77;;;23.60;41.50;;;;;;5071949;28;20450;-50
2022/04/19 00:39:58;;;;;;;8.43;8.23;;;23.50;41.40;;;;;;5072178;28;20537;-48
2022/04/19 00:42:28;;;;;;;8.73;8.53;;;23.60;41.40;;;;;;5072148;28;20452;-46
2022/04/19 00:44:55;;;;;;;9.53;8.97;;;23.70;41.40;;;;;;5071852;28;20895;-49
2022/04/19 00:47:22;;;;;;;8.90;8.60;;;23.80;41.30;;;;;;5071682;28;20822;-46
2022/04/19 00:49:50;;;;;;;9.30;9.00;;;23.90;41.20;;;;;;5072062;28;20443;-45
2022/04/19 00:52:18;;;;;;;9.33;8.97;;;23.90;41.00;;;;;;5071846;28;20450;-48
2022/04/19 00:54:47;;;;;;;8.80;8.40;;;24.00;41.00;;;;;;5071908;28;20474;-45
2022/04/19 00:57:14;;;;;;;8.60;8.40;;;24.00;40.80;;;;;;5071052;28;20454;-45
2022/04/19 00:59:41;;;;;;;8.93;8.73;;;24.10;40.90;;;;;;5071760;28;20510;-45
2022/04/19 01:02:08;;;;;;;8.70;8.50;;;24.10;40.80;;;;;;5071433;28;20803;-45
2022/04/19 01:04:35;;;;;;;9.10;8.90;;;24.10;40.80;;;;;;5071557;28;20475;-45
2022/04/19 01:07:04;;;;;;;8.87;8.57;;;24.10;40.80;;;;;;5071498;28;20458;-45
2022/04/19 01:09:32;;;;;;;9.10;8.80;;;24.10;40.80;;;;;;5071674;28;20446;-45
2022/04/19 01:14:45;;;;;;;8.57;8.37;;;24.10;40.80;;;;;;5071700;28;20520;-46
2022/04/19 01:17:13;;;;;;;8.77;8.57;;;24.10;40.80;;;;;;5071533;28;20443;-45
2022/04/19 01:19:40;;;;;;;9.03;8.83;;;24.10;40.90;;;;;;5071379;28;20502;-45
2022/04/19 01:22:12;;;;;;;9.00;8.70;;;24.10;40.90;;;;;;5071712;28;20440;-45
2022/04/19 01:24:40;;;;;;;9.27;8.97;;;24.10;40.90;;;;;;5071509;28;20470;-45
2022/04/19 01:27:09;;;;;;;9.30;9.00;;;24.10;40.90;;;;;;5071119;28;20444;-45
2022/04/19 01:29:36;;;;;;;9.43;9.13;;;24.10;40.90;;;;;;5071579;28;20806;-45
2022/04/19 01:32:04;;;;;;;8.77;8.57;;;24.10;41.00;;;;;;5071455;28;20444;-45
2022/04/19 01:34:31;;;;;;;9.53;9.23;;;24.00;40.90;;;;;;5071471;28;20471;-45
2022/04/19 01:36:59;;;;;;;8.47;8.17;;;24.00;40.90;;;;;;5070955;28;20443;-45
2022/04/19 01:42:09;;;;;;;9.17;8.77;;;23.90;41.00;;;;;;5070324;28;20459;-45
2022/04/19 01:44:36;;;;;;;8.40;8.20;;;23.90;41.00;;;;;;5070984;28;20839;-45
2022/04/19 01:47:05;;;;;;;7.93;7.73;;;23.90;41.10;;;;;;5071103;28;20443;-47
2022/04/19 01:49:32;;;;;;;8.60;8.40;;;23.90;41.10;;;;;;5071291;28;20500;-44
2022/04/19 01:51:59;;;;;;;8.23;7.97;;;23.80;41.10;;;;;;5071069;28;20447;-45
2022/04/19 01:54:27;;;;;;;7.70;7.43;;;23.80;41.10;;;;;;5071158;28;20464;-45
2022/04/19 01:56:54;;;;;;;9.00;8.70;;;23.80;41.20;;;;;;5071066;28;20439;-45
2022/04/19 01:59:21;;;;;;;8.43;8.17;;;23.80;41.30;;;;;;5071123;28;20483;-45
2022/04/19 02:01:48;;;;;;;8.30;8.10;;;23.70;41.20;;;;;;5071113;28;20448;-45
2022/04/19 02:04:15;;;;;;;8.67;8.37;;;23.70;41.30;;;;;;5070979;28;20554;-45
2022/04/19 02:06:43;;;;;;;7.83;7.63;;;23.70;41.90;;;;;;5071242;28;20447;-45
2022/04/19 02:09:10;;;;;;;10.03;9.73;;;23.60;41.40;;;;;;5075046;28;20443;-47
2022/04/19 02:11:38;;;;;;;8.90;8.70;;;23.60;41.40;;;;;;5074904;28;20811;-45
2022/04/19 02:14:06;;;;;;;9.40;9.10;;;23.70;41.50;;;;;;5074908;28;20520;-45
2022/04/19 02:16:33;;;;;;;9.33;9.13;;;23.70;41.50;;;;;;5074745;28;20490;-45
2022/04/19 02:19:00;;;;;;;8.33;8.13;;;23.70;41.50;;;;;;5074779;28;20497;-45
2022/04/19 02:21:27;;;;;;;8.57;8.37;;;23.70;41.40;;;;;;5074630;28;20479;-45
2022/04/19 02:23:54;;;;;;;8.80;8.40;;;23.70;41.30;;;;;;5074160;28;20961;-45
2022/04/19 02:26:24;;;;;;;9.30;8.90;;;23.80;41.30;;;;;;5074410;28;20450;-45
2022/04/19 02:28:52;;;;;;;9.03;8.80;;;23.80;41.30;;;;;;5074725;28;20880;-45
2022/04/19 02:31:19;;;;;;;8.60;8.40;;;23.80;41.20;;;;;;5074377;28;20446;-45
2022/04/19 02:33:46;;;;;;;9.10;8.90;;;23.80;41.10;;;;;;5074507;28;20446;-45
2022/04/19 02:36:13;;;;;;;8.67;8.47;;;23.80;41.10;;;;;;5074303;28;20475;-45
2022/04/19 02:38:40;;;;;;;8.30;8.10;;;23.90;41.10;;;;;;5074366;28;20455;-45
2022/04/19 02:41:07;;;;;;;8.23;7.93;;;23.90;41.10;;;;;;5054210;28;20486;-45
2022/04/19 02:43:33;;;;;;;9.03;8.83;;;23.90;41.10;;;;;;5054408;28;20455;-45
2022/04/19 02:46:02;;;;;;;8.53;8.27;;;23.90;41.10;;;;;;5054176;28;20495;-48
2022/04/19 02:48:30;;;;;;;9.10;8.80;;;23.90;41.10;;;;;;5054235;28;20446;-46
2022/04/19 02:50:58;;;;;;;8.93;8.63;;;23.90;41.10;;;;;;5054323;28;20444;-45
2022/04/19 02:53:24;;;;;;;8.30;8.10;;;23.90;41.10;;;;;;5054166;28;20453;-46
2022/04/19 02:55:51;;;;;;;9.63;9.43;;;23.90;41.10;;;;;;5058597;28;20474;-45
2022/04/19 02:58:18;;;;;;;8.70;8.50;;;23.90;41.10;;;;;;5073843;28;20443;-45
2022/04/19 03:00:45;;;;;;;8.50;8.30;;;23.80;41.10;;;;;;5073951;28;20478;-45
2022/04/19 03:03:15;;;;;;;9.00;8.80;;;23.80;41.10;;;;;;5074178;28;20477;-45
2022/04/19 03:05:42;;;;;;;8.27;8.07;;;23.80;41.20;;;;;;5073754;28;20521;-45
2022/04/19 03:08:09;;;;;;;8.67;8.40;;;23.80;41.20;;;;;;5073978;28;20456;-45
2022/04/19 03:10:36;;;;;;;7.97;7.77;;;23.70;41.20;;;;;;5073946;28;20448;-45
2022/04/19 03:13:03;;;;;;;9.50;9.30;;;23.70;41.20;;;;;;5073760;28;20554;-47
2022/04/19 03:15:34;;;;;;;8.40;8.20;;;23.70;41.30;;;;;;5073727;28;20467;-45
2022/04/19 03:18:01;;;;;;;9.00;8.80;;;23.70;41.40;;;;;;5073981;28;20447;-45
2022/04/19 03:20:29;;;;;;;8.13;7.93;;;23.70;41.50;;;;;;5073140;28;20490;-48
2022/04/19 03:28:25;;;;;;;8.77;8.57;;;23.60;41.50;;;;;;5073405;28;20812;-47
2022/04/19 03:30:52;;;;;;;9.40;9.10;;;23.50;41.40;;;;;;5072391;28;20444;-48
2022/04/19 03:33:19;;;;;;;8.80;8.50;;;23.50;41.50;;;;;;5073610;28;20451;-47
2022/04/19 03:35:47;;;;;;;8.50;8.30;;;23.50;41.60;;;;;;5073300;28;20463;-47
2022/04/19 03:38:14;;;;;;;8.03;7.83;;;23.50;41.60;;;;;;5073203;28;20826;-48
2022/04/19 03:40:41;;;;;;;8.30;8.10;;;23.50;41.60;;;;;;5073250;28;20480;-48
2022/04/19 03:43:08;;;;;;;9.63;9.33;;;23.40;41.50;;;;;;5073285;28;20447;-47
2022/04/19 03:45:35;;;;;;;9.10;8.90;;;23.50;41.60;;;;;;5072733;28;20475;-46
2022/04/19 03:48:02;;;;;;;9.23;9.03;;;23.50;41.50;;;;;;5073122;28;20456;-46
2022/04/19 03:50:29;;;;;;;8.50;8.10;;;23.50;41.50;;;;;;5073163;28;20475;-47
2022/04/19 03:52:57;;;;;;;8.57;8.27;;;23.50;41.40;;;;;;5073171;28;20543;-47
2022/04/19 03:55:24;;;;;;;8.33;8.13;;;23.60;41.50;;;;;;5072530;28;20468;-48
2022/04/19 03:57:51;;;;;;;8.97;8.77;;;23.50;41.30;;;;;;5072911;28;20458;-45
2022/04/19 04:00:21;;;;;;;8.80;8.50;;;23.60;41.30;;;;;;5073039;28;20487;-48
2022/04/19 04:02:48;;;;;;;9.50;9.20;;;23.60;41.30;;;;;;5072702;28;20483;-45
2022/04/19 04:05:15;;;;;;;10.07;9.77;;;23.60;41.30;;;;;;5072486;28;20471;-49
2022/04/19 04:07:42;;;;;;;9.47;9.17;;;23.60;41.20;;;;;;5072852;28;20444;-49
2022/04/19 04:10:10;;;;;;;9.00;8.80;;;23.70;41.20;;;;;;5072748;28;20436;-46
2022/04/19 04:12:37;;;;;;;8.87;8.57;;;23.70;41.20;;;;;;5072692;28;20454;-48
2022/04/19 04:15:05;;;;;;;8.57;8.37;;;23.70;41.20;;;;;;5072613;28;20464;-45
2022/04/19 04:17:32;;;;;;;8.93;8.67;;;23.70;41.10;;;;;;5072454;28;20443;-48
2022/04/19 04:19:59;;;;;;;8.57;8.27;;;23.70;41.20;;;;;;5072289;28;20447;-49
2022/04/19 04:22:26;;;;;;;8.30;8.10;;;23.70;41.30;;;;;;5072600;28;21049;-46
2022/04/19 04:24:53;;;;;;;8.27;8.03;;;23.70;41.40;;;;;;5072397;28;20475;-48
2022/04/19 04:27:21;;;;;;;8.97;8.70;;;23.70;41.50;;;;;;5072241;28;20436;-47
2022/04/19 04:29:48;;;;;;;8.77;8.53;;;23.70;41.60;;;;;;5072076;28;20858;-45
2022/04/19 04:32:16;;;;;;;8.83;8.63;;;23.60;41.50;;;;;;5071624;28;20443;-45
2022/04/19 04:34:43;;;;;;;8.27;7.97;;;23.60;41.50;;;;;;5072313;28;20474;-46
2022/04/19 04:37:09;;;;;;;9.77;9.47;;;23.60;41.60;;;;;;5071865;28;20451;-47
2022/04/19 04:39:38;;;;;;;9.60;9.30;;;23.60;41.60;;;;;;5071922;28;20539;-46
2022/04/19 04:42:05;;;;;;;7.83;7.63;;;23.60;41.60;;;;;;5072123;28;20479;-45
2022/04/19 04:44:34;;;;;;;8.40;8.10;;;23.60;41.60;;;;;;5072053;28;20810;-45
2022/04/19 04:49:45;;;;;;;13.07;11.27;;;23.60;41.80;;;;;;5072140;28;20484;-45
2022/04/19 04:52:13;;;;;;;11.00;10.40;;;23.60;43.50;;;;;;5071479;28;20455;-50
2022/04/19 04:54:42;;;;;;;10.37;9.73;;;23.60;45.80;;;;;;5071992;28;20464;-46
2022/04/19 04:57:11;;;;;;;11.20;10.40;;;23.50;42.90;;;;;;5071771;28;20533;-46
2022/04/19 04:59:40;;;;;;;11.17;10.57;;;23.40;41.80;;;;;;5071839;28;20450;-45
2022/04/19 05:02:07;;;;;;;11.17;10.57;;;23.30;40.80;;;;;;5071761;28;20822;-45
2022/04/19 05:04:35;;;;;;;11.73;11.13;;;23.20;40.10;;;;;;5071660;28;20848;-45
2022/04/19 05:07:02;;;;;;;11.73;10.97;;;23.20;40.20;;;;;;5071503;28;20451;-50
2022/04/19 05:09:29;;;;;;;10.77;10.27;;;23.30;41.80;;;;;;5071339;28;20842;-46
2022/04/19 05:11:56;;;;;;;10.77;10.20;;;23.30;42.20;;;;;;5072042;28;20436;-46
2022/04/19 05:14:22;;;;;;;10.80;10.17;;;23.40;42.20;;;;;;5071748;28;20463;-49
2022/04/19 05:16:50;;;;;;;9.87;9.37;;;23.50;42.30;;;;;;5071492;28;20779;-46
2022/04/19 05:19:17;;;;;;;10.90;10.30;;;23.60;42.20;;;;;;5071615;28;20453;-46
2022/04/19 05:21:44;;;;;;;11.30;10.90;;;23.60;42.10;;;;;;5071228;28;20515;-46
2022/04/19 05:24:11;;;;;;;9.70;9.30;;;23.70;41.90;;;;;;5071384;28;20471;-47
2022/04/19 05:26:38;;;;;;;10.20;9.70;;;23.70;41.70;;;;;;5071258;28;20448;-46
2022/04/19 05:29:05;;;;;;;10.80;10.20;;;23.80;41.60;;;;;;5071421;28;20831;-47
2022/04/19 05:31:32;;;;;;;10.40;10.00;;;23.80;41.40;;;;;;5071464;28;20821;-46
2022/04/19 05:34:00;;;;;;;10.20;9.70;;;23.90;41.40;;;;;;5071347;28;20447;-46
2022/04/19 05:36:26;;;;;;;10.20;9.60;;;23.90;41.30;;;;;;5071107;28;20454;-46
2022/04/19 05:38:54;;;;;;;9.40;9.03;;;23.90;41.20;;;;;;5071346;28;20447;-46
2022/04/19 05:41:20;;;;;;;10.80;10.20;;;24.00;41.10;;;;;;5071331;28;20486;-46
2022/04/19 05:43:48;;;;;;;11.43;10.83;;;24.00;41.10;;;;;;5075318;28;20448;-48
2022/04/19 05:46:17;;;;;;;10.00;9.70;;;24.00;41.00;;;;;;5075386;28;20812;-49
2022/04/19 05:48:44;;;;;;;9.63;9.23;;;24.00;40.90;;;;;;5075478;28;20448;-46
2022/04/19 05:51:13;;;;;;;11.63;11.00;;;24.00;40.90;;;;;;5075197;28;20443;-46
2022/04/19 05:53:39;;;;;;;10.43;10.03;;;24.00;40.90;;;;;;5075574;28;20448;-48
2022/04/19 05:56:06;;;;;;;11.10;10.70;;;24.00;40.90;;;;;;5075048;28;20447;-46
2022/04/19 05:58:33;;;;;;;11.90;11.40;;;24.00;40.90;;;;;;5075355;28;20805;-47
2022/04/19 06:01:01;;;;;;;11.80;11.30;;;24.00;40.80;;;;;;5075143;28;20483;-47
2022/04/19 06:06:14;;;;;;;12.40;11.90;;;24.00;40.90;;;;;;5075490;28;20973;-46
2022/04/19 06:08:41;;;;;;;11.37;10.97;;;24.00;40.80;;;;;;5074967;28;20447;-46
2022/04/19 06:11:11;;;;;;;11.70;10.90;;;23.90;40.80;;;;;;5074896;28;20431;-47
2022/04/19 06:13:37;;;;;;;11.20;10.70;;;23.90;40.80;;;;;;5074974;28;20543;-45
2022/04/19 06:16:05;;;;;;;12.17;11.60;;;23.90;40.80;;;;;;5074500;28;20830;-47
2022/04/19 06:18:32;;;;;;;12.07;11.40;;;23.90;40.90;;;;;;5074673;28;20828;-50
2022/04/19 06:20:59;;;;;;;11.10;10.70;;;23.90;40.90;;;;;;5074652;28;20486;-46
2022/04/19 06:23:27;;;;;;;10.30;9.80;;;23.90;40.90;;;;;;5074727;28;20973;-47
2022/04/19 06:25:54;;;;;;;10.83;10.33;;;23.80;40.90;;;;;;5074407;28;20833;-47
2022/04/19 06:28:21;;;;;;;10.97;10.57;;;23.80;40.90;;;;;;5074685;28;20471;-46
2022/04/19 06:30:48;;;;;;;10.00;9.60;;;23.80;40.90;;;;;;5074563;28;20446;-46
2022/04/19 06:33:15;;;;;;;10.63;10.07;;;23.80;40.90;;;;;;5074544;28;20526;-47
2022/04/19 06:35:42;;;;;;;10.93;10.43;;;23.80;41.00;;;;;;5074161;28;20474;-46
2022/04/19 06:38:09;;;;;;;10.97;10.57;;;23.70;40.90;;;;;;5074511;28;20504;-46
2022/04/19 06:40:37;;;;;;;10.93;10.43;;;23.70;40.90;;;;;;5074287;28;20455;-46
2022/04/19 06:43:04;;;;;;;11.60;11.10;;;23.70;40.90;;;;;;5074451;28;20447;-46
2022/04/19 06:45:31;;;;;;;11.43;11.03;;;23.70;41.00;;;;;;5074131;28;20470;-48
2022/04/19 06:47:59;;;;;;;11.00;10.50;;;23.70;40.90;;;;;;5074396;28;20459;-45
2022/04/19 06:50:25;;;;;;;10.90;10.50;;;23.70;41.00;;;;;;5074295;28;20485;-46
2022/04/19 06:52:53;;;;;;;9.90;9.60;;;23.60;41.00;;;;;;5073910;28;20962;-46
2022/04/19 06:55:20;;;;;;;10.63;10.27;;;23.60;41.00;;;;;;5073265;28;20879;-46
2022/04/19 06:57:48;;;;;;;10.77;10.37;;;23.60;41.00;;;;;;5073974;28;20443;-45
2022/04/19 07:00:16;;;;;;;10.53;10.23;;;23.60;41.10;;;;;;5074082;28;20814;-49
2022/04/19 07:02:44;;;;;;;10.60;10.30;;;23.60;41.10;;;;;;5074065;28;20486;-47
2022/04/19 07:05:11;;;;;;;10.23;9.83;;;23.60;41.70;;;;;;5073841;28;20570;-46
2022/04/19 07:07:42;;;;;;;10.10;9.60;;;23.60;41.20;;;;;;5073783;28;20459;-46
2022/04/19 07:10:10;;;;;;;10.93;10.53;;;23.60;41.10;;;;;;5073924;28;20857;-45
2022/04/19 07:12:37;;;;;;;10.00;9.70;;;23.60;41.10;;;;;;5073894;28;20483;-46
2022/04/19 07:15:06;;;;;;;9.77;9.53;;;23.70;41.10;;;;;;5073826;28;20459;-48
2022/04/19 07:17:33;;;;;;;10.03;9.80;;;23.70;41.00;;;;;;5073712;28;20450;-46
2022/04/19 07:28:12;;;;;;;10.37;10.07;;;24.00;40.70;;;;;;5073663;28;20419;-46
2022/04/19 07:30:40;;;;;;;10.37;9.97;;;24.00;40.60;;;;;;5073524;28;20443;-47
2022/04/19 07:33:07;;;;;;;9.40;9.10;;;24.10;40.60;;;;;;5073479;28;20444;-46
2022/04/19 07:35:34;;;;;;;9.23;9.00;;;24.10;40.50;;;;;;5073112;28;20508;-47
2022/04/19 07:38:02;;;;;;;9.63;9.33;;;24.20;40.50;;;;;;5073429;28;20462;-48
2022/04/19 07:40:30;;;;;;;10.10;9.77;;;24.20;40.50;;;;;;5073310;28;20451;-46
2022/04/19 07:42:56;;;;;;;10.10;9.67;;;24.20;40.50;;;;;;5073312;28;20491;-46
2022/04/19 07:45:23;;;;;;;10.10;9.60;;;24.20;40.40;;;;;;5073058;28;20834;-46
2022/04/19 07:47:51;;;;;;;9.90;9.60;;;24.20;40.40;;;;;;5073257;28;20463;-46
2022/04/19 07:50:18;;;;;;;10.37;10.07;;;24.20;40.40;;;;;;5073166;28;20444;-46
2022/04/19 07:52:45;;;;;;;9.80;9.50;;;24.20;40.40;;;;;;5073079;28;20440;-46
2022/04/19 07:55:11;;;;;;;10.27;9.97;;;24.20;40.40;;;;;;5072981;28;20464;-46
2022/04/19 07:57:38;;;;;;;9.40;9.10;;;24.20;40.40;;;;;;5072797;28;20638;-46
2022/04/19 08:00:07;;;;;;;10.10;9.80;;;24.20;40.40;;;;;;5072839;28;20814;-46
2022/04/19 08:02:33;;;;;;;10.03;9.63;;;24.20;40.40;;;;;;5072876;28;21001;-46
2022/04/19 08:05:01;;;;;;;10.77;10.47;;;24.20;40.40;;;;;;5072255;28;21015;-46
2022/04/19 08:07:28;;;;;;;9.93;9.63;;;24.20;40.50;;;;;;5072538;28;20443;-46
2022/04/19 08:09:58;;;;;;;9.47;9.23;;;24.20;40.50;;;;;;5072711;28;20447;-47
2022/04/19 08:12:25;;;;;;;10.10;9.80;;;24.10;40.40;;;;;;5072757;28;20454;-46
2022/04/19 08:14:52;;;;;;;10.30;10.00;;;24.10;40.50;;;;;;5072507;28;20463;-46
2022/04/19 08:17:19;;;;;;;9.87;9.57;;;24.10;40.50;;;;;;5072366;28;20451;-45
2022/04/19 08:19:45;;;;;;;9.67;9.40;;;24.10;40.50;;;;;;5072500;28;20526;-47
2022/04/19 08:22:14;;;;;;;9.80;9.50;;;24.10;40.60;;;;;;5072311;28;20491;-46
2022/04/19 08:24:41;;;;;;;10.10;9.80;;;24.10;40.60;;;;;;5072480;28;20468;-46
2022/04/19 08:27:08;;;;;;;10.30;10.00;;;24.10;40.70;;;;;;5072048;28;20931;-48
2022/04/19 08:29:34;;;;;;;9.40;9.10;;;24.00;40.60;;;;;;5072434;28;20826;-45
2022/04/19 08:32:01;;;;;;;9.73;9.43;;;24.00;40.60;;;;;;5072414;28;20803;-49
2022/04/19 08:34:28;;;;;;;10.97;10.67;;;24.00;40.60;;;;;;5072202;28;20471;-46
2022/04/19 08:36:55;;;;;;;10.60;10.20;;;24.00;40.70;;;;;;5072013;28;20451;-46
2022/04/19 08:39:23;;;;;;;11.73;11.40;;;24.00;40.70;;;;;;5072211;28;20505;-46
2022/04/19 08:41:50;;;;;;;11.20;10.80;;;24.00;40.80;;;;;;5071860;28;20484;-46
2022/04/19 08:44:17;;;;;;;9.80;9.60;;;23.90;40.70;;;;;;5071939;28;20470;-46
2022/04/19 08:46:45;;;;;;;8.93;8.73;;;23.90;40.70;;;;;;5071766;28;20451;-48
2022/04/19 08:49:13;;;;;;;10.00;9.60;;;23.90;40.70;;;;;;5071859;28;20451;-46
2022/04/19 08:51:41;;;;;;;9.60;9.30;;;23.90;40.80;;;;;;5072020;28;20446;-46
2022/04/19 08:59:40;;;;;;;9.53;9.33;;;23.90;40.90;;;;;;5071940;28;20550;-48
2022/04/19 09:02:07;;;;;;;9.00;8.80;;;23.90;40.90;;;;;;5071736;28;20487;-45
2022/04/19 09:04:34;;;;;;;9.80;9.60;;;23.80;40.90;;;;;;5071570;28;20580;-47
2022/04/19 09:07:02;;;;;;;10.23;9.93;;;23.80;40.90;;;;;;5071583;28;20444;-46
2022/04/19 09:09:30;;;;;;;9.60;9.40;;;23.80;41.00;;;;;;5071776;28;20448;-48
2022/04/19 09:12:07;;;;;;;9.40;9.20;;;23.80;41.00;;;;;;5071658;28;20474;-48
2022/04/19 09:14:34;;;;;;;9.90;9.67;;;23.80;41.00;;;;;;5071589;28;20463;-46
2022/04/19 09:17:04;;;;;;;9.37;9.10;;;23.80;41.00;;;;;;5070712;28;20492;-48
2022/04/19 09:19:31;;;;;;;10.00;9.70;;;23.80;41.00;;;;;;5071817;28;20466;-48
2022/04/19 09:21:58;;;;;;;9.70;9.50;;;23.90;41.00;;;;;;5071611;28;20490;-46
2022/04/19 09:24:26;;;;;;;9.40;9.10;;;23.90;41.00;;;;;;5071585;28;20478;-50
2022/04/19 09:26:53;;;;;;;10.47;10.17;;;24.00;40.90;;;;;;5071306;28;20517;-46
2022/04/19 09:29:22;;;;;;;9.47;9.27;;;24.00;40.80;;;;;;5071863;28;20447;-50
2022/04/19 09:31:51;;;;;;;8.60;8.40;;;24.10;40.80;;;;;;5071513;28;20823;-47
2022/04/19 09:34:29;;;;;;;10.40;10.10;;;24.10;40.70;;;;;;5071319;28;20520;-46
2022/04/19 09:37:07;;;;;;;9.70;9.50;;;24.20;40.70;;;;;;5071158;28;20456;-46
2022/04/19 09:39:36;;;;;;;9.93;9.70;;;24.20;40.60;;;;;;5071456;28;20438;-46
2022/04/19 09:42:05;;;;;;;10.57;10.17;;;24.30;40.60;;;;;;5071524;28;20475;-50
2022/04/19 09:44:39;;;;;;;10.27;10.00;;;24.30;40.50;;;;;;5071303;28;20459;-46
2022/04/19 09:47:07;;;;;;;9.23;9.00;;;24.30;40.50;;;;;;5070964;28;20541;-46
2022/04/19 09:49:48;;;;;;;9.17;8.90;;;24.30;40.40;;;;;;5071379;28;20799;-46
2022/04/19 09:52:32;;;;;;;10.30;10.00;;;24.40;40.50;;;;;;5071290;28;20443;-46
2022/04/19 09:55:00;;;;;;;9.77;9.57;;;24.40;40.50;;;;;;5070876;28;20837;-50
2022/04/19 09:57:28;;;;;;;10.27;9.97;;;24.40;40.50;;;;;;5071035;28;20458;-46
2022/04/19 09:59:57;;;;;;;10.30;10.00;;;24.40;40.50;;;;;;5071155;28;20482;-48
2022/04/19 10:10:40;;;;;;;9.60;9.40;;;24.40;40.50;;;;;;5071117;28;20787;-47
2022/04/19 10:13:07;;;;;;;10.60;10.30;;;24.30;40.50;;;;;;5070940;28;20466;-46
2022/04/19 10:15:36;;;;;;;9.70;9.47;;;24.30;40.60;;;;;;5070608;28;21005;-46
2022/04/19 10:18:05;;;;;;;10.50;10.20;;;24.30;40.50;;;;;;5071298;28;20455;-46
2022/04/19 10:20:35;;;;;;;10.60;10.30;;;24.30;40.60;;;;;;5070905;28;20505;-45
2022/04/19 10:23:03;;;;;;;9.87;9.67;;;24.30;40.60;;;;;;5070482;28;20479;-50
2022/04/19 10:25:43;;;;;;;9.90;9.60;;;24.30;40.60;;;;;;5070724;28;20464;-50
2022/04/19 10:28:11;;;;;;;9.80;9.40;;;24.30;40.60;;;;;;5072256;28;20746;-47
2022/04/19 10:30:52;;;;;;;10.70;10.40;;;24.30;40.60;;;;;;5074755;28;20552;-44
2022/04/19 10:33:44;;;;;;;10.80;10.50;;;24.20;40.70;;;;;;5074633;28;20450;-44
2022/04/19 10:36:13;;;;;;;10.63;10.33;;;24.10;41.00;;;;;;5074506;28;20927;-44
2022/04/19 10:38:39;;;;;;;11.60;11.20;;;24.00;41.10;;;;;;5074579;28;20527;-44
2022/04/19 10:41:06;;;;;;;12.67;11.87;;;24.00;41.40;;;;;;5074756;28;20443;-45
2022/04/19 10:43:33;;;;;;;10.07;9.67;;;23.90;41.60;;;;;;5074420;28;20584;-45
2022/04/19 10:46:22;;;;;;;9.40;9.20;;;23.90;41.90;;;;;;5074148;28;20826;-45
2022/04/19 10:49:23;;;;;;;11.77;11.43;;;23.90;42.00;;;;;;5074408;28;20451;-44
2022/04/19 10:51:50;;;;;;;11.70;11.00;;;23.90;42.20;;;;;;5074262;28;20976;-45
2022/04/19 10:54:17;;;;;;;11.60;11.10;;;23.80;42.30;;;;;;5074159;28;20885;-49
2022/04/19 10:58:05;;;;;;;10.77;10.47;;;23.80;42.30;;;;;;5074050;28;20443;-45
2022/04/19 11:00:22;;;;;;;10.63;10.23;;;23.80;42.40;;;;;;5070560;28;20526;-44
2022/04/19 11:03:00;;;;;;;11.47;11.07;;;23.80;43.20;;;;;;5074021;28;20483;-45
2022/04/19 11:05:45;;;;;;;12.60;12.10;;;23.70;43.60;;;;;;5073703;28;20471;-44
2022/04/19 11:08:35;;;;;;;11.03;10.70;;;23.70;44.10;;;;;;5073938;28;20448;-44
2022/04/19 11:11:24;;;;;;;10.87;10.57;;;23.80;44.50;;;;;;5074017;28;20927;-45
2022/04/19 11:14:34;;;;;;;11.67;11.07;;;23.80;44.60;;;;;;5073681;28;20883;-44
2022/04/19 11:17:22;;;;;;;10.93;10.60;;;23.80;44.60;;;;;;5026591;28;20451;-44
2022/04/19 11:19:54;;;;;;;11.10;10.70;;;23.80;44.70;;;;;;5073745;28;20803;-44
2022/04/19 11:22:29;;;;;;;11.97;11.47;;;23.90;44.90;;;;;;5073016;28;20479;-45
2022/04/19 11:25:07;;;;;;;10.97;10.63;;;23.90;44.90;;;;;;5073798;28;20888;-48
2022/04/19 11:28:16;;;;;;;10.80;10.50;;;24.10;44.80;;;;;;5073395;28;20802;-46
2022/04/19 11:31:07;;;;;;;11.37;10.67;;;24.20;44.70;;;;;;5073292;28;20813;-46
2022/04/19 11:33:36;;;;;;;11.20;10.60;;;24.30;44.30;;;;;;5073302;28;20493;-46
2022/04/19 11:36:05;;;;;;;10.77;10.37;;;24.40;44.00;;;;;;5073277;28;20470;-46
2022/04/19 11:38:34;;;;;;;10.30;10.00;;;24.40;44.10;;;;;;5073860;28;20447;-46
2022/04/19 11:46:46;;;;;;;9.97;9.67;;;24.60;43.40;;;;;;5042097;28;20431;-49
2022/04/19 11:49:35;;;;;;;10.27;9.97;;;24.70;43.30;;;;;;5073407;28;20442;-46
2022/04/19 11:52:07;;;;;;;10.13;9.83;;;24.70;43.10;;;;;;5073391;28;20443;-46
2022/04/19 11:54:34;;;;;;;10.73;10.13;;;24.70;43.00;;;;;;5073182;28;20466;-50
2022/04/19 11:57:04;;;;;;;10.23;9.93;;;24.70;42.90;;;;;;5072984;28;20450;-48
2022/04/19 11:59:32;;;;;;;10.50;10.20;;;24.80;42.80;;;;;;5072997;28;20501;-48
2022/04/19 12:02:00;;;;;;;10.40;10.10;;;24.80;42.80;;;;;;5072847;28;20462;-53
2022/04/19 12:04:28;;;;;;;10.67;10.27;;;24.90;42.80;;;;;;5073263;28;21002;-46
2022/04/19 12:06:58;;;;;;;9.70;9.40;;;25.00;42.60;;;;;;5072733;28;20516;-47
2022/04/19 12:09:25;;;;;;;10.40;10.10;;;25.20;42.30;;;;;;5073033;28;20493;-46
2022/04/19 12:11:54;;;;;;;9.53;9.33;;;25.30;42.40;;;;;;5072796;28;20447;-47
2022/04/19 12:14:25;;;;;;;10.67;10.37;;;25.40;42.10;;;;;;5072868;28;20623;-47
2022/04/19 12:16:59;;;;;;;9.90;9.60;;;25.40;41.90;;;;;;5072374;28;20803;-48
2022/04/19 12:19:38;;;;;;;9.43;9.23;;;25.50;41.70;;;;;;5072575;28;20821;-47
2022/04/19 12:22:17;;;;;;;9.80;9.50;;;25.60;41.60;;;;;;5072359;28;20894;-50
2022/04/19 12:24:48;;;;;;;9.90;9.60;;;25.60;41.50;;;;;;5072497;28;20459;-47
2022/04/19 12:27:15;;;;;;;10.27;9.90;;;25.60;41.40;;;;;;5072228;28;20455;-47
2022/04/19 12:29:56;;;;;;;10.40;10.00;;;25.60;41.40;;;;;;5072467;28;20956;-46
2022/04/19 12:32:23;;;;;;;9.80;9.50;;;25.60;41.40;;;;;;5072504;28;20438;-46
2022/04/19 12:34:50;;;;;;;10.20;9.83;;;25.60;41.30;;;;;;5072210;28;20463;-46
2022/04/19 12:37:21;;;;;;;10.00;9.80;;;25.70;41.30;;;;;;5072098;28;20496;-46
2022/04/19 12:39:58;;;;;;;9.93;9.63;;;25.70;41.30;;;;;;5072252;28;20535;-47
2022/04/19 12:42:25;;;;;;;10.33;10.03;;;25.70;41.20;;;;;;5072377;28;20805;-46
2022/04/19 12:45:04;;;;;;;10.27;9.93;;;25.70;41.10;;;;;;5072190;28;20936;-49
2022/04/19 12:47:31;;;;;;;10.57;10.27;;;25.70;41.10;;;;;;5071877;28;20455;-46
2022/04/19 12:49:58;;;;;;;9.83;9.63;;;25.70;41.10;;;;;;5072106;28;20454;-46
2022/04/19 12:52:32;;;;;;;10.50;10.30;;;25.80;41.20;;;;;;5071292;28;20447;-46
2022/04/19 12:55:01;;;;;;;10.20;9.80;;;25.80;41.10;;;;;;5071832;28;20868;-45
2022/04/19 12:57:28;;;;;;;11.07;10.77;;;25.80;41.10;;;;;;5071904;28;20659;-47
2022/04/19 12:59:55;;;;;;;12.73;12.23;;;25.80;41.20;;;;;;5072125;28;20454;-46
2022/04/19 13:02:22;;;;;;;10.40;10.00;;;25.80;41.20;;;;;;5071473;28;21029;-46
2022/04/19 13:04:49;;;;;;;10.00;9.63;;;25.70;41.20;;;;;;5071569;28;20475;-47
2022/04/19 13:12:50;;;;;;;9.70;9.50;;;25.70;41.20;;;;;;5071691;28;20427;-46
2022/04/19 13:15:17;;;;;;;9.53;9.33;;;25.70;41.30;;;;;;5071537;28;20470;-49
2022/04/19 13:17:44;;;;;;;10.00;9.73;;;25.70;41.30;;;;;;5071589;28;20443;-51
2022/04/19 13:20:12;;;;;;;9.00;8.80;;;25.70;41.30;;;;;;5071679;28;20455;-50
2022/04/19 13:22:39;;;;;;;9.60;9.40;;;25.70;41.30;;;;;;5071626;28;20450;-46
2022/04/19 13:25:08;;;;;;;10.63;10.13;;;25.70;41.40;;;;;;5071753;28;20464;-47
2022/04/19 13:27:36;;;;;;;9.80;9.60;;;25.70;42.00;;;;;;5071357;28;20454;-49
2022/04/19 13:30:04;;;;;;;10.73;10.43;;;25.70;41.50;;;;;;5071398;28;20443;-52
2022/04/19 13:32:30;;;;;;;10.60;10.40;;;25.70;41.60;;;;;;5071702;28;20958;-47
2022/04/19 13:34:57;;;;;;;10.90;10.60;;;25.60;41.60;;;;;;5071393;28;20474;-46
2022/04/19 13:40:07;;;;;;;10.83;10.63;;;25.60;41.60;;;;;;5070458;28;20493;-45